sensor_id;sensor_type;location;lat;lon;timestamp;pressure;altitude;pressure_sealevel;temperature;humidity
63019;BME280;49105;46.046;10.760;2023-05-19T00:00:48;95871.09;;;14.27;62.38
63019;BME280;49105;46.046;10.760;2023-05-19T00:03:23;95870.81;;;14.28;62.32
63019;BME280;49105;46.046;10.760;2023-05-19T00:05:49;95872.69;;;14.28;62.26
63019;BME280;49105;46.046;10.760;2023-05-19T00:08:29;95875.94;;;14.25;62.47
63019;BME280;49105;46.046;10.760;2023-05-19T00:10:55;95879.38;;;14.25;62.77
63019;BME280;49105;46.046;10.760;2023-05-19T00:13:20;95873.53;;;14.23;62.76
63019;BME280;49105;46.046;10.760;2023-05-19T00:15:59;95871.47;;;14.20;63.41
63019;BME280;49105;46.046;10.760;2023-05-19T00:18:25;95870.59;;;14.25;63.37
63019;BME280;49105;46.046;10.760;2023-05-19T00:20:56;95871.38;;;14.25;63.16
63019;BME280;49105;46.046;10.760;2023-05-19T00:23:25;95879.69;;;14.24;62.76
63019;BME280;49105;46.046;10.760;2023-05-19T00:26:03;95873.75;;;14.27;63.09
63019;BME280;49105;46.046;10.760;2023-05-19T00:31:31;95873.75;;;14.27;63.27
63019;BME280;49105;46.046;10.760;2023-05-19T00:39:50;95875.13;;;14.05;63.93
63019;BME280;49105;46.046;10.760;2023-05-19T00:42:19;95875.50;;;13.99;64.16
63019;BME280;49105;46.046;10.760;2023-05-19T00:44:48;95873.91;;;13.98;64.62
63019;BME280;49105;46.046;10.760;2023-05-19T00:47:14;95872.03;;;13.98;64.36
63019;BME280;49105;46.046;10.760;2023-05-19T00:52:54;95869.03;;;14.05;64.51
63019;BME280;49105;46.046;10.760;2023-05-19T00:55:38;95868.31;;;13.99;64.46
63019;BME280;49105;46.046;10.760;2023-05-19T01:01:20;95865.44;;;13.96;64.02
63019;BME280;49105;46.046;10.760;2023-05-19T01:03:55;95856.50;;;13.86;64.84
63019;BME280;49105;46.046;10.760;2023-05-19T01:09:42;95862.25;;;13.94;64.67
63019;BME280;49105;46.046;10.760;2023-05-19T01:12:19;95854.19;;;13.99;64.48
63019;BME280;49105;46.046;10.760;2023-05-19T01:18:04;95857.50;;;13.90;64.95
63019;BME280;49105;46.046;10.760;2023-05-19T01:32:47;95850.81;;;13.74;64.85
63019;BME280;49105;46.046;10.760;2023-05-19T01:35:21;95853.44;;;13.79;65.22
63019;BME280;49105;46.046;10.760;2023-05-19T01:37:47;95849.13;;;13.83;65.07
63019;BME280;49105;46.046;10.760;2023-05-19T01:40:16;95850.13;;;13.87;64.90
63019;BME280;49105;46.046;10.760;2023-05-19T01:42:48;95846.38;;;13.88;65.17
63019;BME280;49105;46.046;10.760;2023-05-19T01:45:15;95850.16;;;13.82;65.20
63019;BME280;49105;46.046;10.760;2023-05-19T01:48:10;95845.94;;;13.81;65.72
63019;BME280;49105;46.046;10.760;2023-05-19T01:50:37;95843.84;;;13.78;66.00
63019;BME280;49105;46.046;10.760;2023-05-19T01:53:06;95838.81;;;13.77;66.03
63019;BME280;49105;46.046;10.760;2023-05-19T01:55:31;95843.34;;;13.76;66.08
63019;BME280;49105;46.046;10.760;2023-05-19T01:58:14;95844.22;;;13.72;66.27
63019;BME280;49105;46.046;10.760;2023-05-19T02:11:51;95843.06;;;13.59;66.94
63019;BME280;49105;46.046;10.760;2023-05-19T02:14:24;95841.50;;;13.58;66.92
63019;BME280;49105;46.046;10.760;2023-05-19T02:16:57;95843.13;;;13.54;67.37
63019;BME280;49105;46.046;10.760;2023-05-19T02:19:33;95844.97;;;13.53;66.86
63019;BME280;49105;46.046;10.760;2023-05-19T02:22:00;95843.63;;;13.56;66.65
63019;BME280;49105;46.046;10.760;2023-05-19T02:24:25;95847.59;;;13.58;66.43
63019;BME280;49105;46.046;10.760;2023-05-19T02:26:53;95849.97;;;13.60;66.68
63019;BME280;49105;46.046;10.760;2023-05-19T02:29:19;95849.97;;;13.60;66.70
63019;BME280;49105;46.046;10.760;2023-05-19T02:31:44;95848.78;;;13.47;67.17
63019;BME280;49105;46.046;10.760;2023-05-19T02:34:36;95850.72;;;13.42;67.37
63019;BME280;49105;46.046;10.760;2023-05-19T02:37:07;95848.28;;;13.45;67.12
63019;BME280;49105;46.046;10.760;2023-05-19T02:39:42;95847.06;;;13.56;66.70
63019;BME280;49105;46.046;10.760;2023-05-19T02:42:10;95842.06;;;13.55;66.97
63019;BME280;49105;46.046;10.760;2023-05-19T02:44:36;95838.31;;;13.56;67.14
63019;BME280;49105;46.046;10.760;2023-05-19T02:47:07;95838.22;;;13.61;66.66
63019;BME280;49105;46.046;10.760;2023-05-19T02:49:33;95841.91;;;13.65;66.75
63019;BME280;49105;46.046;10.760;2023-05-19T02:55:04;95843.84;;;13.59;67.21
63019;BME280;49105;46.046;10.760;2023-05-19T02:57:35;95846.00;;;13.57;67.07
63019;BME280;49105;46.046;10.760;2023-05-19T03:00:04;95841.50;;;13.58;67.08
63019;BME280;49105;46.046;10.760;2023-05-19T03:02:30;95843.84;;;13.59;66.88
63019;BME280;49105;46.046;10.760;2023-05-19T03:04:58;95835.88;;;13.59;66.89
63019;BME280;49105;46.046;10.760;2023-05-19T03:07:35;95840.88;;;13.61;67.23
63019;BME280;49105;46.046;10.760;2023-05-19T03:10:12;95837.44;;;13.60;67.36
63019;BME280;49105;46.046;10.760;2023-05-19T03:12:44;95841.69;;;13.61;67.15
63019;BME280;49105;46.046;10.760;2023-05-19T03:15:18;95830.84;;;13.58;67.31
63019;BME280;49105;46.046;10.760;2023-05-19T03:17:46;95838.22;;;13.61;66.98
63019;BME280;49105;46.046;10.760;2023-05-19T03:20:19;95837.22;;;13.57;66.93
63019;BME280;49105;46.046;10.760;2023-05-19T03:22:53;95835.34;;;13.57;67.14
63019;BME280;49105;46.046;10.760;2023-05-19T03:25:19;95834.34;;;13.53;67.01
63019;BME280;49105;46.046;10.760;2023-05-19T03:27:53;95838.66;;;13.49;67.49
63019;BME280;49105;46.046;10.760;2023-05-19T03:30:28;95834.16;;;13.50;67.65
63019;BME280;49105;46.046;10.760;2023-05-19T03:32:56;95838.88;;;13.53;67.47
63019;BME280;49105;46.046;10.760;2023-05-19T03:35:21;95838.09;;;13.52;67.50
63019;BME280;49105;46.046;10.760;2023-05-19T03:37:47;95841.03;;;13.51;67.13
63019;BME280;49105;46.046;10.760;2023-05-19T03:40:19;95842.63;;;13.52;67.67
63019;BME280;49105;46.046;10.760;2023-05-19T03:42:47;95841.03;;;13.51;67.74
63019;BME280;49105;46.046;10.760;2023-05-19T03:45:19;95838.66;;;13.49;67.61
63019;BME280;49105;46.046;10.760;2023-05-19T03:53:16;95833.00;;;13.56;67.39
63019;BME280;49105;46.046;10.760;2023-05-19T03:55:50;95838.53;;;13.59;67.35
63019;BME280;49105;46.046;10.760;2023-05-19T03:58:18;95839.31;;;13.60;67.70
63019;BME280;49105;46.046;10.760;2023-05-19T04:00:44;95836.16;;;13.58;67.22
63019;BME280;49105;46.046;10.760;2023-05-19T04:03:12;95847.38;;;13.55;66.94
63019;BME280;49105;46.046;10.760;2023-05-19T04:05:38;95838.66;;;13.49;67.41
63019;BME280;49105;46.046;10.760;2023-05-19T04:08:04;95844.34;;;13.43;67.63
63019;BME280;49105;46.046;10.760;2023-05-19T04:10:35;95848.06;;;13.42;67.99
63019;BME280;49105;46.046;10.760;2023-05-19T04:13:09;95846.47;;;13.40;67.71
63019;BME280;49105;46.046;10.760;2023-05-19T04:15:35;95845.47;;;13.36;67.88
63019;BME280;49105;46.046;10.760;2023-05-19T04:18:04;95844.97;;;13.34;68.08
63019;BME280;49105;46.046;10.760;2023-05-19T04:20:33;95850.78;;;13.36;68.05
63019;BME280;49105;46.046;10.760;2023-05-19T04:23:01;95856.09;;;13.36;67.58
63019;BME280;49105;46.046;10.760;2023-05-19T04:25:26;95862.41;;;13.40;67.71
63019;BME280;49105;46.046;10.760;2023-05-19T04:30:58;95861.06;;;13.43;68.24
63019;BME280;49105;46.046;10.760;2023-05-19T04:33:24;95865.06;;;13.40;67.47
63019;BME280;49105;46.046;10.760;2023-05-19T04:35:55;95864.84;;;13.37;68.21
63019;BME280;49105;46.046;10.760;2023-05-19T04:38:30;95859.03;;;13.35;67.73
63019;BME280;49105;46.046;10.760;2023-05-19T04:40:56;95871.25;;;13.36;67.68
63019;BME280;49105;46.046;10.760;2023-05-19T04:43:24;95868.88;;;13.34;67.75
63019;BME280;49105;46.046;10.760;2023-05-19T04:45:51;95868.59;;;13.36;67.63
63019;BME280;49105;46.046;10.760;2023-05-19T04:48:23;95874.13;;;13.39;68.17
63019;BME280;49105;46.046;10.760;2023-05-19T04:50:48;95871.47;;;13.39;67.55
63019;BME280;49105;46.046;10.760;2023-05-19T04:53:15;95872.63;;;13.33;68.72
63019;BME280;49105;46.046;10.760;2023-05-19T04:55:41;95871.38;;;13.26;68.26
63019;BME280;49105;46.046;10.760;2023-05-19T04:58:13;95870.31;;;13.27;68.17
63019;BME280;49105;46.046;10.760;2023-05-19T05:00:45;95875.66;;;13.22;68.67
63019;BME280;49105;46.046;10.760;2023-05-19T05:03:10;95868.53;;;13.17;68.74
63019;BME280;49105;46.046;10.760;2023-05-19T05:05:44;95870.09;;;13.18;68.78
63019;BME280;49105;46.046;10.760;2023-05-19T05:08:10;95873.84;;;13.17;69.05
63019;BME280;49105;46.046;10.760;2023-05-19T05:10:50;95876.44;;;13.22;68.59
63019;BME280;49105;46.046;10.760;2023-05-19T05:13:28;95877.25;;;13.23;68.60
63019;BME280;49105;46.046;10.760;2023-05-19T05:15:54;95878.56;;;13.25;68.70
63019;BME280;49105;46.046;10.760;2023-05-19T05:18:23;95873.69;;;13.32;68.98
63019;BME280;49105;46.046;10.760;2023-05-19T05:21:05;95880.31;;;13.35;68.51
63019;BME280;49105;46.046;10.760;2023-05-19T05:23:31;95874.94;;;13.40;68.56
63019;BME280;49105;46.046;10.760;2023-05-19T05:29:18;95875.69;;;13.46;69.04
63019;BME280;49105;46.046;10.760;2023-05-19T05:32:21;95876.16;;;13.48;69.07
63019;BME280;49105;46.046;10.760;2023-05-19T05:34:53;95875.59;;;13.51;69.09
63019;BME280;49105;46.046;10.760;2023-05-19T05:37:21;95870.22;;;13.56;69.08
63019;BME280;49105;46.046;10.760;2023-05-19T05:39:52;95870.66;;;13.63;69.01
63019;BME280;49105;46.046;10.760;2023-05-19T05:42:18;95867.38;;;13.71;68.60
63019;BME280;49105;46.046;10.760;2023-05-19T05:44:44;95862.28;;;13.75;69.03
63019;BME280;49105;46.046;10.760;2023-05-19T05:47:20;95860.88;;;13.77;68.57
63019;BME280;49105;46.046;10.760;2023-05-19T05:49:46;95855.66;;;13.72;69.22
63019;BME280;49105;46.046;10.760;2023-05-19T05:52:15;95863.56;;;13.77;68.74
63019;BME280;49105;46.046;10.760;2023-05-19T05:54:42;95868.53;;;13.84;69.01
63019;BME280;49105;46.046;10.760;2023-05-19T06:00:03;95874.13;;;13.82;69.27
63019;BME280;49105;46.046;10.760;2023-05-19T06:02:34;95872.69;;;13.90;69.04
63019;BME280;49105;46.046;10.760;2023-05-19T06:08:03;95876.44;;;14.08;68.78
63019;BME280;49105;46.046;10.760;2023-05-19T06:10:38;95870.25;;;14.12;68.71
63019;BME280;49105;46.046;10.760;2023-05-19T06:13:05;95868.03;;;14.20;68.37
63019;BME280;49105;46.046;10.760;2023-05-19T06:15:31;95867.72;;;14.21;67.86
63019;BME280;49105;46.046;10.760;2023-05-19T06:17:57;95863.41;;;14.25;68.10
63019;BME280;49105;46.046;10.760;2023-05-19T06:20:22;95872.41;;;14.29;67.54
63019;BME280;49105;46.046;10.760;2023-05-19T06:22:50;95883.03;;;14.29;67.86
63019;BME280;49105;46.046;10.760;2023-05-19T06:25:16;95876.72;;;14.25;68.04
63019;BME280;49105;46.046;10.760;2023-05-19T06:27:47;95872.41;;;14.29;67.59
63019;BME280;49105;46.046;10.760;2023-05-19T06:30:19;95874.53;;;14.27;67.80
63019;BME280;49105;46.046;10.760;2023-05-19T06:32:47;95878.28;;;14.26;67.66
63019;BME280;49105;46.046;10.760;2023-05-19T06:35:21;95872.69;;;14.28;67.29
63019;BME280;49105;46.046;10.760;2023-05-19T06:37:55;95871.59;;;14.29;67.25
63019;BME280;49105;46.046;10.760;2023-05-19T06:40:24;95876.94;;;14.29;67.28
63019;BME280;49105;46.046;10.760;2023-05-19T06:42:59;95876.34;;;14.32;67.28
63019;BME280;49105;46.046;10.760;2023-05-19T06:45:25;95877.41;;;14.31;67.06
63019;BME280;49105;46.046;10.760;2023-05-19T06:48:02;95887.78;;;14.32;66.85
63019;BME280;49105;46.046;10.760;2023-05-19T06:50:28;95883.53;;;14.31;66.87
63019;BME280;49105;46.046;10.760;2023-05-19T06:53:02;95884.41;;;14.27;66.92
63019;BME280;49105;46.046;10.760;2023-05-19T06:55:28;95877.50;;;14.26;66.87
63019;BME280;49105;46.046;10.760;2023-05-19T06:57:54;95879.28;;;14.30;66.96
63019;BME280;49105;46.046;10.760;2023-05-19T07:00:25;95885.72;;;14.29;67.04
63019;BME280;49105;46.046;10.760;2023-05-19T07:02:50;95892.47;;;14.22;67.13
63019;BME280;49105;46.046;10.760;2023-05-19T07:05:15;95895.22;;;14.17;67.02
63019;BME280;49105;46.046;10.760;2023-05-19T07:07:50;95892.91;;;14.10;67.60
63019;BME280;49105;46.046;10.760;2023-05-19T07:10:22;95891.63;;;14.07;67.73
63019;BME280;49105;46.046;10.760;2023-05-19T07:12:48;95891.81;;;14.11;67.96
63019;BME280;49105;46.046;10.760;2023-05-19T07:15:13;95889.75;;;14.08;68.15
63019;BME280;49105;46.046;10.760;2023-05-19T07:17:45;95889.81;;;14.03;68.06
63019;BME280;49105;46.046;10.760;2023-05-19T07:20:10;95891.97;;;14.01;68.53
63019;BME280;49105;46.046;10.760;2023-05-19T07:22:41;95888.53;;;14.00;68.92
63019;BME280;49105;46.046;10.760;2023-05-19T07:25:07;95889.22;;;14.06;68.19
63019;BME280;49105;46.046;10.760;2023-05-19T07:27:41;95882.03;;;14.06;68.31
63019;BME280;49105;46.046;10.760;2023-05-19T07:30:13;95873.78;;;14.08;68.53
63019;BME280;49105;46.046;10.760;2023-05-19T07:32:39;95884.19;;;14.23;68.72
63019;BME280;49105;46.046;10.760;2023-05-19T07:35:05;95880.28;;;14.34;68.20
63019;BME280;49105;46.046;10.760;2023-05-19T07:37:37;95882.31;;;14.43;67.95
63019;BME280;49105;46.046;10.760;2023-05-19T07:43:05;95870.13;;;14.55;68.10
63019;BME280;49105;46.046;10.760;2023-05-19T07:45:43;95870.78;;;14.66;67.74
63019;BME280;49105;46.046;10.760;2023-05-19T07:48:15;95873.34;;;14.71;67.48
63019;BME280;49105;46.046;10.760;2023-05-19T07:50:42;95875.13;;;14.76;67.48
63019;BME280;49105;46.046;10.760;2023-05-19T07:53:18;95871.19;;;14.73;67.28
63019;BME280;49105;46.046;10.760;2023-05-19T07:55:43;95874.72;;;14.69;67.41
63019;BME280;49105;46.046;10.760;2023-05-19T07:58:09;95869.56;;;14.58;67.42
63019;BME280;49105;46.046;10.760;2023-05-19T08:00:35;95865.53;;;14.61;67.78
63019;BME280;49105;46.046;10.760;2023-05-19T08:03:00;95868.69;;;14.63;67.04
63019;BME280;49105;46.046;10.760;2023-05-19T08:05:35;95871.88;;;14.65;67.36
63019;BME280;49105;46.046;10.760;2023-05-19T08:08:01;95869.09;;;14.70;66.88
63019;BME280;49105;46.046;10.760;2023-05-19T08:10:36;95875.63;;;14.78;66.72
63019;BME280;49105;46.046;10.760;2023-05-19T08:13:01;95870.13;;;14.88;66.78
63019;BME280;49105;46.046;10.760;2023-05-19T08:15:32;95865.41;;;14.99;66.62
63019;BME280;49105;46.046;10.760;2023-05-19T08:18:04;95855.94;;;15.06;66.22
63019;BME280;49105;46.046;10.760;2023-05-19T08:20:30;95854.06;;;15.07;65.99
63019;BME280;49105;46.046;10.760;2023-05-19T08:22:55;95850.31;;;15.08;66.20
63019;BME280;49105;46.046;10.760;2023-05-19T08:25:30;95853.66;;;15.13;65.93
63019;BME280;49105;46.046;10.760;2023-05-19T08:27:56;95852.88;;;15.13;66.08
63019;BME280;49105;46.046;10.760;2023-05-19T08:30:30;95862.84;;;15.07;66.07
63019;BME280;49105;46.046;10.760;2023-05-19T08:33:01;95852.47;;;15.06;66.07
63019;BME280;49105;46.046;10.760;2023-05-19T08:35:34;95843.19;;;15.03;66.19
63019;BME280;49105;46.046;10.760;2023-05-19T08:37:59;95854.94;;;15.02;66.16
63019;BME280;49105;46.046;10.760;2023-05-19T08:40:34;95848.94;;;15.10;66.04
63019;BME280;49105;46.046;10.760;2023-05-19T08:43:02;95847.34;;;15.09;66.10
63019;BME280;49105;46.046;10.760;2023-05-19T08:45:27;95843.59;;;15.10;66.12
63019;BME280;49105;46.046;10.760;2023-05-19T08:47:53;95844.28;;;15.16;65.77
63019;BME280;49105;46.046;10.760;2023-05-19T08:50:25;95844.69;;;15.23;65.50
63019;BME280;49105;46.046;10.760;2023-05-19T08:55:42;95842.31;;;15.35;65.20
63019;BME280;49105;46.046;10.760;2023-05-19T08:58:18;95847.03;;;15.38;65.11
63019;BME280;49105;46.046;10.760;2023-05-19T09:00:46;95848.31;;;15.41;65.08
63019;BME280;49105;46.046;10.760;2023-05-19T09:03:11;95846.34;;;15.47;65.00
63019;BME280;49105;46.046;10.760;2023-05-19T09:05:39;95845.16;;;15.53;64.84
63019;BME280;49105;46.046;10.760;2023-05-19T09:08:05;95848.50;;;15.58;64.69
63019;BME280;49105;46.046;10.760;2023-05-19T09:10:37;95844.38;;;15.66;64.48
63019;BME280;49105;46.046;10.760;2023-05-19T09:13:02;95843.06;;;15.63;64.40
63019;BME280;49105;46.046;10.760;2023-05-19T09:18:32;95847.31;;;15.51;64.60
63019;BME280;49105;46.046;10.760;2023-05-19T09:20:59;95843.66;;;15.60;64.30
63019;BME280;49105;46.046;10.760;2023-05-19T09:23:43;95841.59;;;15.71;64.08
63019;BME280;49105;46.046;10.760;2023-05-19T09:26:11;95840.59;;;15.81;63.95
63019;BME280;49105;46.046;10.760;2023-05-19T09:28:42;95841.13;;;15.92;63.63
63019;BME280;49105;46.046;10.760;2023-05-19T09:31:08;95840.06;;;15.93;63.46
63019;BME280;49105;46.046;10.760;2023-05-19T09:33:39;95832.22;;;15.96;63.24
63019;BME280;49105;46.046;10.760;2023-05-19T09:36:06;95835.88;;;16.00;63.16
63019;BME280;49105;46.046;10.760;2023-05-19T09:38:44;95835.09;;;16.00;63.34
63019;BME280;49105;46.046;10.760;2023-05-19T09:41:18;95841.72;;;16.02;63.18
63019;BME280;49105;46.046;10.760;2023-05-19T09:43:53;95840.16;;;16.01;63.03
63019;BME280;49105;46.046;10.760;2023-05-19T09:46:20;95831.81;;;16.03;63.25
63019;BME280;49105;46.046;10.760;2023-05-19T09:48:50;95836.56;;;16.06;63.25
63019;BME280;49105;46.046;10.760;2023-05-19T09:51:33;95836.56;;;16.06;62.83
63019;BME280;49105;46.046;10.760;2023-05-19T09:54:03;95836.97;;;15.99;63.20
63019;BME280;49105;46.046;10.760;2023-05-19T09:56:37;95831.63;;;15.99;63.14
63019;BME280;49105;46.046;10.760;2023-05-19T09:59:12;95832.06;;;15.93;63.19
63019;BME280;49105;46.046;10.760;2023-05-19T10:01:48;95830.47;;;15.92;63.36
63019;BME280;49105;46.046;10.760;2023-05-19T10:04:13;95832.41;;;16.00;63.28
63019;BME280;49105;46.046;10.760;2023-05-19T10:06:52;95826.47;;;16.03;63.06
63019;BME280;49105;46.046;10.760;2023-05-19T10:09:21;95831.22;;;16.06;63.17
63019;BME280;49105;46.046;10.760;2023-05-19T10:11:48;95826.13;;;16.18;63.01
63019;BME280;49105;46.046;10.760;2023-05-19T10:14:14;95826.78;;;16.24;62.81
63019;BME280;49105;46.046;10.760;2023-05-19T10:16:40;95837.34;;;16.29;62.52
63019;BME280;49105;46.046;10.760;2023-05-19T10:19:05;95831.41;;;16.32;62.52
63019;BME280;49105;46.046;10.760;2023-05-19T10:21:31;95828.50;;;16.42;62.29
63019;BME280;49105;46.046;10.760;2023-05-19T10:23:57;95830.44;;;16.50;62.17
63019;BME280;49105;46.046;10.760;2023-05-19T10:26:22;95825.56;;;16.52;61.79
63019;BME280;49105;46.046;10.760;2023-05-19T10:28:59;95824.00;;;16.51;61.61
63019;BME280;49105;46.046;10.760;2023-05-19T10:31:25;95827.31;;;16.57;61.50
63019;BME280;49105;46.046;10.760;2023-05-19T10:39:33;95824.16;;;16.77;61.07
63019;BME280;49105;46.046;10.760;2023-05-19T10:42:14;95824.03;;;16.82;60.71
63019;BME280;49105;46.046;10.760;2023-05-19T10:47:06;95825.88;;;16.73;59.89
63019;BME280;49105;46.046;10.760;2023-05-19T10:49:35;95824.28;;;16.72;59.51
63019;BME280;49105;46.046;10.760;2023-05-19T10:55:03;95821.03;;;16.75;59.30
63019;BME280;49105;46.046;10.760;2023-05-19T10:57:38;95821.31;;;16.74;59.19
63019;BME280;49105;46.046;10.760;2023-05-19T11:00:27;95815.47;;;16.72;59.34
63019;BME280;49105;46.046;10.760;2023-05-19T11:03:25;95821.75;;;16.67;58.92
63019;BME280;49105;46.046;10.760;2023-05-19T11:05:47;95818.09;;;16.63;59.21
63019;BME280;49105;46.046;10.760;2023-05-19T11:08:33;95822.34;;;16.64;59.25
63019;BME280;49105;46.046;10.760;2023-05-19T11:11:14;95822.19;;;16.69;59.04
63019;BME280;49105;46.046;10.760;2023-05-19T11:13:49;95811.16;;;16.62;58.94
63019;BME280;49105;46.046;10.760;2023-05-19T11:16:28;95814.94;;;16.61;58.75
63019;BME280;49105;46.046;10.760;2023-05-19T11:19:03;95815.28;;;16.68;58.90
63019;BME280;49105;46.046;10.760;2023-05-19T11:21:49;95815.53;;;16.80;59.20
63019;BME280;49105;46.046;10.760;2023-05-19T11:27:19;95811.41;;;17.14;58.86
63019;BME280;49105;46.046;10.760;2023-05-19T11:29:51;95807.66;;;17.24;58.42
63019;BME280;49105;46.046;10.760;2023-05-19T11:32:18;95804.22;;;17.23;58.42
63019;BME280;49105;46.046;10.760;2023-05-19T11:34:53;95802.38;;;17.32;58.72
63019;BME280;49105;46.046;10.760;2023-05-19T11:37:22;95801.44;;;17.37;58.50
63019;BME280;49105;46.046;10.760;2023-05-19T11:39:54;95801.09;;;17.39;58.43
63019;BME280;49105;46.046;10.760;2023-05-19T11:42:19;95802.22;;;17.38;58.10
63019;BME280;49105;46.046;10.760;2023-05-19T11:44:45;95801.25;;;17.33;58.22
63019;BME280;49105;46.046;10.760;2023-05-19T11:47:11;95797.31;;;17.40;57.89
63019;BME280;49105;46.046;10.760;2023-05-19T11:49:37;95803.63;;;17.44;57.82
63019;BME280;49105;46.046;10.760;2023-05-19T11:52:03;95800.97;;;17.52;57.84
63019;BME280;49105;46.046;10.760;2023-05-19T11:54:29;95799.25;;;17.65;57.91
63019;BME280;49105;46.046;10.760;2023-05-19T11:56:56;95797.41;;;17.74;57.53
63019;BME280;49105;46.046;10.760;2023-05-19T11:59:37;95798.81;;;17.80;57.68
63019;BME280;49105;46.046;10.760;2023-05-19T12:02:23;95797.72;;;17.81;57.27
63019;BME280;49105;46.046;10.760;2023-05-19T12:04:52;95793.31;;;17.85;57.20
63019;BME280;49105;46.046;10.760;2023-05-19T12:07:27;95791.13;;;17.88;57.20
63019;BME280;49105;46.046;10.760;2023-05-19T12:09:58;95786.38;;;17.93;56.94
63019;BME280;49105;46.046;10.760;2023-05-19T12:12:23;95796.00;;;18.03;57.09
63019;BME280;49105;46.046;10.760;2023-05-19T12:14:52;95801.19;;;18.08;56.63
63019;BME280;49105;46.046;10.760;2023-05-19T12:20:02;95793.16;;;17.99;56.83
63019;BME280;49105;46.046;10.760;2023-05-19T12:22:29;95789.53;;;18.04;56.81
63019;BME280;49105;46.046;10.760;2023-05-19T12:25:00;95791.75;;;18.10;56.69
63019;BME280;49105;46.046;10.760;2023-05-19T12:30:29;95797.25;;;18.14;56.71
63019;BME280;49105;46.046;10.760;2023-05-19T12:32:56;95800.72;;;18.23;56.27
63019;BME280;49105;46.046;10.760;2023-05-19T12:35:40;95796.16;;;18.15;56.39
63019;BME280;49105;46.046;10.760;2023-05-19T12:38:06;95796.63;;;18.00;56.56
63019;BME280;49105;46.046;10.760;2023-05-19T12:40:41;95805.47;;;17.92;56.57
63019;BME280;49105;46.046;10.760;2023-05-19T12:43:23;95798.66;;;17.85;56.85
63019;BME280;49105;46.046;10.760;2023-05-19T12:45:49;95791.75;;;17.84;56.84
63019;BME280;49105;46.046;10.760;2023-05-19T12:48:14;95792.22;;;17.87;56.69
63019;BME280;49105;46.046;10.760;2023-05-19T12:50:46;95787.97;;;17.85;56.86
63019;BME280;49105;46.046;10.760;2023-05-19T12:53:24;95787.19;;;17.85;57.10
63019;BME280;49105;46.046;10.760;2023-05-19T12:55:50;95786.56;;;17.88;56.66
63019;BME280;49105;46.046;10.760;2023-05-19T12:58:19;95790.78;;;17.89;56.85
63019;BME280;49105;46.046;10.760;2023-05-19T13:00:46;95784.66;;;17.89;56.71
63019;BME280;49105;46.046;10.760;2023-05-19T13:03:14;95779.78;;;17.91;56.58
63019;BME280;49105;46.046;10.760;2023-05-19T13:05:40;95788.13;;;17.89;56.57
63019;BME280;49105;46.046;10.760;2023-05-19T13:08:14;95783.09;;;17.96;56.63
63019;BME280;49105;46.046;10.760;2023-05-19T13:10:49;95780.56;;;18.00;56.80
63019;BME280;49105;46.046;10.760;2023-05-19T13:13:20;95784.19;;;18.04;56.56
63019;BME280;49105;46.046;10.760;2023-05-19T13:15:55;95784.19;;;18.04;56.41
63019;BME280;49105;46.046;10.760;2023-05-19T13:18:30;95788.75;;;18.03;56.35
63019;BME280;49105;46.046;10.760;2023-05-19T13:20:59;95786.53;;;17.97;56.65
63019;BME280;49105;46.046;10.760;2023-05-19T13:23:24;95783.25;;;17.91;56.62
63019;BME280;49105;46.046;10.760;2023-05-19T13:26:02;95784.66;;;17.89;56.38
63019;BME280;49105;46.046;10.760;2023-05-19T13:28:40;95781.53;;;17.78;56.96
63019;BME280;49105;46.046;10.760;2023-05-19T13:31:12;95783.50;;;17.64;57.06
63019;BME280;49105;46.046;10.760;2023-05-19T13:33:46;95780.66;;;17.51;57.29
63019;BME280;49105;46.046;10.760;2023-05-19T13:36:15;95788.53;;;17.48;57.52
63019;BME280;49105;46.046;10.760;2023-05-19T13:38:51;95791.97;;;17.40;57.64
63019;BME280;49105;46.046;10.760;2023-05-19T13:41:28;95789.00;;;17.32;57.38
63019;BME280;49105;46.046;10.760;2023-05-19T13:43:57;95788.03;;;17.28;57.56
63019;BME280;49105;46.046;10.760;2023-05-19T13:46:34;95793.50;;;17.23;57.51
63019;BME280;49105;46.046;10.760;2023-05-19T13:49:00;95794.59;;;17.14;58.09
63019;BME280;49105;46.046;10.760;2023-05-19T13:51:34;95793.63;;;17.09;57.80
63019;BME280;49105;46.046;10.760;2023-05-19T13:54:11;95796.28;;;17.01;58.08
63019;BME280;49105;46.046;10.760;2023-05-19T13:56:42;95790.59;;;16.94;58.62
63019;BME280;49105;46.046;10.760;2023-05-19T13:59:13;95794.97;;;16.90;59.03
63019;BME280;49105;46.046;10.760;2023-05-19T14:01:47;95797.28;;;16.82;59.27
63019;BME280;49105;46.046;10.760;2023-05-19T14:07:15;95804.78;;;16.72;59.93
63019;BME280;49105;46.046;10.760;2023-05-19T14:09:50;95807.16;;;16.73;60.18
63019;BME280;49105;46.046;10.760;2023-05-19T14:12:19;95803.94;;;16.62;60.39
63019;BME280;49105;46.046;10.760;2023-05-19T14:14:45;95803.88;;;16.54;60.91
63019;BME280;49105;46.046;10.760;2023-05-19T14:17:21;95806.56;;;16.54;60.91
63019;BME280;49105;46.046;10.760;2023-05-19T14:19:47;95802.31;;;16.53;61.20
63019;BME280;49105;46.046;10.760;2023-05-19T14:22:15;95803.88;;;16.54;61.01
63019;BME280;49105;46.046;10.760;2023-05-19T14:24:48;95809.22;;;16.54;61.36
63019;BME280;49105;46.046;10.760;2023-05-19T14:30:04;95810.94;;;16.50;61.68
63019;BME280;49105;46.046;10.760;2023-05-19T14:32:33;95811.66;;;16.42;62.20
63019;BME280;49105;46.046;10.760;2023-05-19T14:35:05;95809.63;;;16.38;62.10
63019;BME280;49105;46.046;10.760;2023-05-19T14:37:31;95804.28;;;16.38;62.31
63019;BME280;49105;46.046;10.760;2023-05-19T14:40:03;95805.72;;;16.45;62.25
63019;BME280;49105;46.046;10.760;2023-05-19T14:42:29;95810.28;;;16.44;62.02
63019;BME280;49105;46.046;10.760;2023-05-19T14:45:03;95806.31;;;16.42;61.91
63019;BME280;49105;46.046;10.760;2023-05-19T14:47:32;95806.78;;;16.35;62.48